Pratt, KS

5:23 AM CDT on April 26, 2017 (GMT -0500)
Pratt Industrial

Weather History for KPTT - February, 2013

Change the Weather History Date:

Sunday, February 3, 2013

  Actual Average (KP28) Record (KP28)
Temperature  
Mean Temperature 40 °F -  
Max Temperature 55 °F 43 °F 80 °F (1934)
Min Temperature 24 °F 23 °F -8 °F (1989)
Degree Days  
Heating Degree Days 26    
Moisture  
Dew Point 24 °F    
Average Humidity 54    
Maximum Humidity 86    
Minimum Humidity 29    
Precipitation  
Precipitation 0.00 in - - ()
Sea Level Pressure  
Sea Level Pressure 30.10 in    
Wind  
Wind Speed 10 mph (South)    
Max Wind Speed 21 mph    
Max Gust Speed 26 mph    
Visibility 10 miles    
Events      
Averages and records for this station are not official NWS values.
T = Trace of Precipitation, MM = Missing Value Source: NWS Daily Summary

Daily Weather History Graph

Daily Weather History Graph

Search for Another Location

Airport or City:

Trip Planner

Search our weather history database for the weather conditions in past years. The results will help you decide how hot, cold, wet, or windy it might be!

Date:

Astronomy

Feb. 03, 2013 Rise Set
Actual Time 7:36 AM CST 6:01 PM CST
Civil Twilight 7:09 AM CST 6:28 PM CST
Nautical Twilight 6:38 AM CST 7:00 PM CST
Astronomical Twilight 6:07 AM CST 7:30 PM CST
Moon 1:05 AM CST (2/3) 11:40 AM CST (2/3)
Length of Visible Light 11h 19m
Length of Day
10h 24m
Waning Gibbous, 48% of the Moon is Illuminated
Feb 3
Waning Gibbous
Feb 10
New
Feb 17
First Quarter
Feb 25
Full
Mar 4
Last Quarter

Hourly Weather History & Observations

Time (CST) Temp. Windchill Dew Point Humidity Pressure Visibility Wind Dir Wind Speed Gust Speed Precip Events Conditions
12:15 AM 32.0 °F 24.2 °F 23.0 °F 69% 30.29 in 10.0 mi WNW 9.2 mph - N/A   Clear
12:35 AM 32.0 °F 24.8 °F 23.0 °F 69% 30.29 in 10.0 mi WNW 8.1 mph - N/A   Clear
12:55 AM 30.2 °F 21.9 °F 23.0 °F 75% 30.29 in 10.0 mi WNW 9.2 mph - N/A   Clear
1:35 AM 30.2 °F 21.9 °F 23.0 °F 75% 30.28 in 10.0 mi WNW 9.2 mph - N/A   Clear
1:55 AM 30.2 °F 21.9 °F 23.0 °F 75% 30.28 in 10.0 mi WNW 9.2 mph - N/A   Clear
2:15 AM 28.4 °F 20.4 °F 23.0 °F 80% 30.28 in 10.0 mi WNW 8.1 mph - N/A   Clear
2:35 AM 28.4 °F 19.7 °F 23.0 °F 80% 30.29 in 10.0 mi WNW 9.2 mph - N/A   Clear
2:55 AM 28.4 °F 19.7 °F 23.0 °F 80% 30.28 in 10.0 mi West 9.2 mph - N/A   Clear
3:15 AM 28.4 °F 19.7 °F 23.0 °F 80% 30.28 in 10.0 mi WNW 9.2 mph - N/A   Clear
3:35 AM 30.2 °F 21.3 °F 23.0 °F 75% 30.27 in 10.0 mi NW 10.4 mph - N/A   Clear
3:55 AM 28.4 °F 19.7 °F 21.2 °F 74% 30.27 in 10.0 mi NW 9.2 mph - N/A   Clear
4:15 AM 28.4 °F 19.7 °F 23.0 °F 80% 30.26 in 10.0 mi NW 9.2 mph - N/A   Clear
4:35 AM 28.4 °F 23.3 °F 21.2 °F 74% 30.27 in 10.0 mi WNW 4.6 mph - N/A   Clear
4:55 AM 26.6 °F 21.2 °F 21.2 °F 80% 30.27 in 10.0 mi WNW 4.6 mph - N/A   Clear
5:15 AM 28.4 °F - 21.2 °F 74% 30.27 in 10.0 mi Calm Calm - N/A   Clear
5:35 AM 26.6 °F 19.1 °F 21.2 °F 80% 30.27 in 10.0 mi NW 6.9 mph - N/A   Clear
5:55 AM 26.6 °F 22.6 °F 21.2 °F 80% 30.27 in 10.0 mi WNW 3.5 mph - N/A   Clear
6:15 AM 26.6 °F - 21.2 °F 80% 30.27 in 10.0 mi Calm Calm - N/A   Clear
6:35 AM 24.8 °F - 21.2 °F 86% 30.27 in 10.0 mi Calm Calm - N/A   Clear
6:55 AM 26.6 °F - 21.2 °F 80% 30.27 in 10.0 mi Calm Calm - N/A   Clear
7:15 AM 26.6 °F - 21.2 °F 80% 30.27 in 10.0 mi Calm Calm - N/A   Clear
7:35 AM 28.4 °F - 21.2 °F 74% 30.26 in 10.0 mi Calm Calm - N/A   Clear
7:55 AM 28.4 °F - 21.2 °F 74% 30.26 in 10.0 mi Calm Calm - N/A   Clear
8:15 AM 30.2 °F - 23.0 °F 75% 30.25 in 10.0 mi Calm Calm - N/A   Clear
8:35 AM 32.0 °F - 24.8 °F 75% 30.25 in 10.0 mi Calm Calm - N/A   Clear
8:55 AM 35.6 °F 32.8 °F 24.8 °F 65% 30.25 in 10.0 mi ESE 3.5 mph - N/A   Clear
9:15 AM 35.6 °F 31.7 °F 26.6 °F 70% 30.24 in 10.0 mi SE 4.6 mph - N/A   Clear
9:35 AM 37.4 °F 31.4 °F 24.8 °F 60% 30.24 in 10.0 mi SE 8.1 mph - N/A   Clear
9:55 AM 39.2 °F 32.5 °F 24.8 °F 56% 30.23 in 10.0 mi SE 10.4 mph - N/A   Clear
10:15 AM 41.0 °F 33.5 °F 26.6 °F 57% 30.22 in 10.0 mi SE 13.8 mph - N/A   Clear
10:35 AM 42.8 °F 36.6 °F 24.8 °F 49% 30.22 in 10.0 mi SE 11.5 mph - N/A   Clear
10:55 AM 42.8 °F 35.8 °F 24.8 °F 49% 30.21 in 10.0 mi SE 13.8 mph 18.4 mph N/A   Clear
11:15 AM 44.6 °F 38.4 °F 23.0 °F 43% 30.20 in 10.0 mi SSE 12.7 mph - N/A   Clear
11:35 AM 46.4 °F 40.4 °F 23.0 °F 40% 30.19 in 10.0 mi SSE 13.8 mph - N/A   Clear
11:55 AM 48.2 °F - 21.2 °F 34% 30.19 in 10.0 mi SSE 12.7 mph - N/A   Clear
12:15 PM 50.0 °F - 21.2 °F 32% 30.17 in 10.0 mi South 15.0 mph 20.7 mph N/A   Clear
12:35 PM 50.0 °F - 21.2 °F 32% 30.16 in 10.0 mi South 18.4 mph 24.2 mph N/A   Clear
12:55 PM 50.0 °F - 21.2 °F 32% 30.13 in 10.0 mi South 17.3 mph 24.2 mph N/A   Clear
1:15 PM 51.8 °F - 21.2 °F 30% 30.11 in 10.0 mi South 17.3 mph 21.9 mph N/A   Clear
1:35 PM 51.8 °F - 21.2 °F 30% 30.09 in 10.0 mi South 16.1 mph 25.3 mph N/A   Clear
1:55 PM 51.8 °F - 21.2 °F 30% 30.07 in 10.0 mi South 15.0 mph 24.2 mph N/A   Clear
2:15 PM 51.8 °F - 23.0 °F 33% 30.05 in 10.0 mi South 16.1 mph 23.0 mph N/A   Clear
2:55 PM 55.4 °F - 23.0 °F 29% 30.02 in 10.0 mi South 16.1 mph - N/A   Clear
3:15 PM 55.4 °F - 23.0 °F 29% 30.01 in 10.0 mi South 18.4 mph - N/A   Clear
3:35 PM 55.4 °F - 23.0 °F 29% 30.00 in 10.0 mi South 18.4 mph 21.9 mph N/A   Clear
3:55 PM 55.4 °F - 23.0 °F 29% 29.98 in 10.0 mi South 16.1 mph - N/A   Clear
4:15 PM 55.4 °F - 23.0 °F 29% 29.97 in 10.0 mi South 16.1 mph 24.2 mph N/A   Clear
4:35 PM 55.4 °F - 23.0 °F 29% 29.96 in 10.0 mi South 17.3 mph 21.9 mph N/A   Clear
4:55 PM 53.6 °F - 23.0 °F 30% 29.95 in 10.0 mi South 18.4 mph - N/A   Clear
5:15 PM 53.6 °F - 24.8 °F 33% 29.94 in 10.0 mi South 13.8 mph 17.3 mph N/A   Clear
5:35 PM 51.8 °F - 24.8 °F 35% 29.93 in 10.0 mi SSE 11.5 mph - N/A   Clear
5:55 PM 51.8 °F - 26.6 °F 38% 29.92 in 10.0 mi SSE 13.8 mph - N/A   Clear
6:15 PM 51.8 °F - 26.6 °F 38% 29.92 in 10.0 mi SSE 12.7 mph 21.9 mph N/A   Clear
6:35 PM 50.0 °F - 26.6 °F 40% 29.91 in 10.0 mi SSE 11.5 mph 17.3 mph N/A   Clear
6:55 PM 50.0 °F - 26.6 °F 40% 29.91 in 10.0 mi SSE 10.4 mph - N/A   Clear
7:15 PM 50.0 °F - 26.6 °F 40% 29.90 in 10.0 mi SSE 11.5 mph - N/A   Clear
7:35 PM 50.0 °F - 26.6 °F 40% 29.90 in 10.0 mi South 16.1 mph 19.6 mph N/A   Clear
7:55 PM 50.0 °F - 26.6 °F 40% 29.88 in 10.0 mi South 16.1 mph 20.7 mph N/A   Clear
8:15 PM 50.0 °F - 26.6 °F 40% 29.88 in 10.0 mi South 13.8 mph - N/A   Clear
8:35 PM 48.2 °F - 28.4 °F 46% 29.88 in 10.0 mi South 15.0 mph - N/A   Clear
8:55 PM 48.2 °F - 28.4 °F 46% 29.88 in 10.0 mi South 17.3 mph 21.9 mph N/A   Clear
9:15 PM 48.2 °F - 28.4 °F 46% 29.87 in 10.0 mi South 19.6 mph 24.2 mph N/A   Clear
9:35 PM 48.2 °F - 28.4 °F 46% 29.86 in 10.0 mi South 20.7 mph 26.5 mph N/A   Clear
9:55 PM 48.2 °F - 28.4 °F 46% 29.85 in 10.0 mi South 19.6 mph 25.3 mph N/A   Clear
10:15 PM 48.2 °F - 30.2 °F 50% 29.85 in 10.0 mi South 16.1 mph 25.3 mph N/A   Clear
10:35 PM 48.2 °F - 30.2 °F 50% 29.84 in 10.0 mi South 19.6 mph 26.5 mph N/A   Clear
10:55 PM 48.2 °F - 30.2 °F 50% 29.84 in 10.0 mi South 20.7 mph - N/A   Clear
11:15 PM 46.4 °F 39.2 °F 30.2 °F 53% 29.83 in 10.0 mi SSW 18.4 mph - N/A   Clear
11:35 PM 46.4 °F 39.8 °F 30.2 °F 53% 29.82 in 10.0 mi SSW 16.1 mph - N/A   Clear
11:55 PM 46.4 °F 40.1 °F 30.2 °F 53% 29.82 in 10.0 mi SSW 15.0 mph - N/A   Clear